Airfield :
LOGIN :

Register | Disclaimer

   EN    FR    IT 

 










Legend :    VFR   Marginal VFR   IFR   Intensive IFR   Very Intensive IFR
Visi :
Ceiling :
>= 8 km
>= 3000ft
5 to 8 km
1000 to 3000 ft
1500m to 5 km
500 to 1000 ft
800 to 1500m
200 to 500 ft
< 800m
< 200 ft
Symbols :   Thunderstorms  Fog  Heavy snow  Heavy precipitations  Wind > 20 kt
SIGMETs :     Misc.  Thunderstorms  Icing  Turbulence  Mountain Waves  Volcanic Ashes






- Airport Elevation : -13 ft
- IATA code : LEY


EHLE - Lelystad

CURRENT METAR :
  • 192055Z AUTO 04002KT 9999 NCD 08/05 Q1019

EXPIRED METARs :
  • 192025Z AUTO 01002KT 9999 NCD 09/06 Q1019
  • 191955Z AUTO 03003KT 9999 NCD 10/06 Q1019 NOSIG
  • 191925Z AUTO 06003KT 9999 SCT039 BKN043 11/06 Q1019 NOSIG
  • 191855Z AUTO 16004KT 9999 FEW044 12/06 Q1019 NOSIG
  • 191825Z AUTO 06004KT 9999 FEW048 12/06 Q1019 NOSIG

TAF TAF EHLE
Valid from the 19 at 18:00 until the 21 at 00:00 UTC


191708Z 1918/2024 08005KT CAVOK
BECMG 2000/2003 VRB03KT 4000 MIFG BR
PROB40
TEMPO 2003/2007 0600 BCFG
BECMG 2007/2010 9999 NSW SCT025
BECMG 2012/2015 35010KT
PROB30
TEMPO 2015/2018 6000 SHRA SCT025CB
BECMG 2022/2024 5000 BR



MET'MAP, your aeronautical weather chart ! - Copyright ORBIFLY December 2007 - Disclaimer

ORBIFLY MET'MAP TEAM :

Programming & Development : Alexandra Zaïnal
Concept & original design : Baudouin d'Aumeries
Assistance for programming : Marc-Olivier Méhu
Technical & hardware support : Manuel Goepfert

Contact : metmap@orbifly.com




SOURCES & CREDITS :

   NOAA